sensor_id;sensor_type;location;lat;lon;timestamp;temperature;humidity
16283;DHT22;8249;48.708;9.030;2022-11-30T00:00:36;6.20;99.90
16283;DHT22;8249;48.708;9.030;2022-11-30T00:03:04;6.20;99.90
16283;DHT22;8249;48.708;9.030;2022-11-30T00:05:33;6.20;99.90
16283;DHT22;8249;48.708;9.030;2022-11-30T00:08:00;6.20;99.90
16283;DHT22;8249;48.708;9.030;2022-11-30T00:10:28;6.10;99.90
16283;DHT22;8249;48.708;9.030;2022-11-30T00:12:55;6.10;99.90
16283;DHT22;8249;48.708;9.030;2022-11-30T00:15:22;6.10;99.90
16283;DHT22;8249;48.708;9.030;2022-11-30T00:17:49;6.10;99.90
16283;DHT22;8249;48.708;9.030;2022-11-30T00:20:21;6.10;99.90
16283;DHT22;8249;48.708;9.030;2022-11-30T00:22:48;6.10;99.90
16283;DHT22;8249;48.708;9.030;2022-11-30T00:25:15;6.10;99.90
16283;DHT22;8249;48.708;9.030;2022-11-30T00:27:43;6.10;99.90
16283;DHT22;8249;48.708;9.030;2022-11-30T00:30:11;6.10;99.90
16283;DHT22;8249;48.708;9.030;2022-11-30T00:32:38;6.10;99.90
16283;DHT22;8249;48.708;9.030;2022-11-30T00:35:06;6.10;99.90
16283;DHT22;8249;48.708;9.030;2022-11-30T00:37:33;6.10;99.90
16283;DHT22;8249;48.708;9.030;2022-11-30T00:40:00;6.10;99.90
16283;DHT22;8249;48.708;9.030;2022-11-30T00:42:27;6.10;99.90
16283;DHT22;8249;48.708;9.030;2022-11-30T00:44:55;6.10;99.90
16283;DHT22;8249;48.708;9.030;2022-11-30T00:47:22;6.10;99.90
16283;DHT22;8249;48.708;9.030;2022-11-30T00:49:49;6.10;99.90
16283;DHT22;8249;48.708;9.030;2022-11-30T00:52:16;6.10;99.90
16283;DHT22;8249;48.708;9.030;2022-11-30T00:54:43;6.10;99.90
16283;DHT22;8249;48.708;9.030;2022-11-30T00:57:10;6.00;99.90
16283;DHT22;8249;48.708;9.030;2022-11-30T00:59:37;6.00;99.90
16283;DHT22;8249;48.708;9.030;2022-11-30T01:02:05;6.00;99.90
16283;DHT22;8249;48.708;9.030;2022-11-30T01:04:32;6.10;99.90
16283;DHT22;8249;48.708;9.030;2022-11-30T01:06:59;6.00;99.90
16283;DHT22;8249;48.708;9.030;2022-11-30T01:09:26;6.10;99.90
16283;DHT22;8249;48.708;9.030;2022-11-30T01:11:53;6.00;99.90
16283;DHT22;8249;48.708;9.030;2022-11-30T01:14:20;6.00;99.90
16283;DHT22;8249;48.708;9.030;2022-11-30T01:16:48;6.00;99.90
16283;DHT22;8249;48.708;9.030;2022-11-30T01:19:16;6.10;99.90
16283;DHT22;8249;48.708;9.030;2022-11-30T01:21:43;6.00;99.90
16283;DHT22;8249;48.708;9.030;2022-11-30T01:24:10;6.00;99.90
16283;DHT22;8249;48.708;9.030;2022-11-30T01:26:37;6.00;99.90
16283;DHT22;8249;48.708;9.030;2022-11-30T01:29:04;6.00;99.90
16283;DHT22;8249;48.708;9.030;2022-11-30T01:31:31;6.00;99.90
16283;DHT22;8249;48.708;9.030;2022-11-30T01:33:58;6.00;99.90
16283;DHT22;8249;48.708;9.030;2022-11-30T01:36:27;6.00;99.90
16283;DHT22;8249;48.708;9.030;2022-11-30T01:38:55;6.00;99.90
16283;DHT22;8249;48.708;9.030;2022-11-30T01:41:24;6.00;99.90
16283;DHT22;8249;48.708;9.030;2022-11-30T01:43:53;5.90;99.90
16283;DHT22;8249;48.708;9.030;2022-11-30T01:46:28;6.00;99.90
16283;DHT22;8249;48.708;9.030;2022-11-30T01:49:00;5.90;99.90
16283;DHT22;8249;48.708;9.030;2022-11-30T01:51:34;5.90;99.90
16283;DHT22;8249;48.708;9.030;2022-11-30T01:54:02;6.00;99.90
16283;DHT22;8249;48.708;9.030;2022-11-30T01:56:30;6.00;99.90
16283;DHT22;8249;48.708;9.030;2022-11-30T01:58:58;6.00;99.90
16283;DHT22;8249;48.708;9.030;2022-11-30T02:01:25;6.00;99.90
16283;DHT22;8249;48.708;9.030;2022-11-30T02:03:56;6.00;99.90
16283;DHT22;8249;48.708;9.030;2022-11-30T02:06:25;6.00;99.90
16283;DHT22;8249;48.708;9.030;2022-11-30T02:08:54;6.00;99.90
16283;DHT22;8249;48.708;9.030;2022-11-30T02:11:21;6.00;99.90
16283;DHT22;8249;48.708;9.030;2022-11-30T02:14:09;6.00;99.90
16283;DHT22;8249;48.708;9.030;2022-11-30T02:16:46;6.00;99.90
16283;DHT22;8249;48.708;9.030;2022-11-30T02:22:28;6.00;99.90
16283;DHT22;8249;48.708;9.030;2022-11-30T02:25:07;5.90;99.90
16283;DHT22;8249;48.708;9.030;2022-11-30T02:27:55;5.90;99.90
16283;DHT22;8249;48.708;9.030;2022-11-30T02:30:25;5.90;99.90
16283;DHT22;8249;48.708;9.030;2022-11-30T02:32:55;5.90;99.90
16283;DHT22;8249;48.708;9.030;2022-11-30T02:35:26;5.90;99.90
16283;DHT22;8249;48.708;9.030;2022-11-30T02:37:56;5.90;99.90
16283;DHT22;8249;48.708;9.030;2022-11-30T02:40:23;5.90;99.90
16283;DHT22;8249;48.708;9.030;2022-11-30T02:42:51;5.90;99.90
16283;DHT22;8249;48.708;9.030;2022-11-30T02:45:24;5.90;99.90
16283;DHT22;8249;48.708;9.030;2022-11-30T02:47:58;5.90;99.90
16283;DHT22;8249;48.708;9.030;2022-11-30T02:50:29;5.90;99.90
16283;DHT22;8249;48.708;9.030;2022-11-30T02:52:59;5.90;99.90
16283;DHT22;8249;48.708;9.030;2022-11-30T02:55:27;5.90;99.90
16283;DHT22;8249;48.708;9.030;2022-11-30T02:57:54;5.90;99.90
16283;DHT22;8249;48.708;9.030;2022-11-30T03:00:21;5.90;99.90
16283;DHT22;8249;48.708;9.030;2022-11-30T03:02:48;5.90;99.90
16283;DHT22;8249;48.708;9.030;2022-11-30T03:05:17;5.90;99.90
16283;DHT22;8249;48.708;9.030;2022-11-30T03:07:44;5.90;99.90
16283;DHT22;8249;48.708;9.030;2022-11-30T03:10:11;5.90;99.90
16283;DHT22;8249;48.708;9.030;2022-11-30T03:12:38;5.90;99.90
16283;DHT22;8249;48.708;9.030;2022-11-30T03:15:05;5.90;99.90
16283;DHT22;8249;48.708;9.030;2022-11-30T03:17:32;5.90;99.90
16283;DHT22;8249;48.708;9.030;2022-11-30T03:19:59;5.90;99.90
16283;DHT22;8249;48.708;9.030;2022-11-30T03:22:28;5.90;99.90
16283;DHT22;8249;48.708;9.030;2022-11-30T03:24:54;5.90;99.90
16283;DHT22;8249;48.708;9.030;2022-11-30T03:27:21;5.90;99.90
16283;DHT22;8249;48.708;9.030;2022-11-30T03:29:48;5.90;99.90
16283;DHT22;8249;48.708;9.030;2022-11-30T03:32:15;5.90;99.90
16283;DHT22;8249;48.708;9.030;2022-11-30T03:34:42;5.90;99.90
16283;DHT22;8249;48.708;9.030;2022-11-30T03:37:09;5.90;99.90
16283;DHT22;8249;48.708;9.030;2022-11-30T03:39:38;5.90;99.90
16283;DHT22;8249;48.708;9.030;2022-11-30T03:42:05;5.90;99.90
16283;DHT22;8249;48.708;9.030;2022-11-30T03:44:32;5.90;99.90
16283;DHT22;8249;48.708;9.030;2022-11-30T03:46:58;5.90;99.90
16283;DHT22;8249;48.708;9.030;2022-11-30T03:49:25;5.90;99.90
16283;DHT22;8249;48.708;9.030;2022-11-30T03:51:52;5.90;99.90
16283;DHT22;8249;48.708;9.030;2022-11-30T03:54:19;5.90;99.90
16283;DHT22;8249;48.708;9.030;2022-11-30T03:56:48;5.90;99.90
16283;DHT22;8249;48.708;9.030;2022-11-30T03:59:15;5.90;99.90
16283;DHT22;8249;48.708;9.030;2022-11-30T04:01:42;5.90;99.90
16283;DHT22;8249;48.708;9.030;2022-11-30T04:04:10;5.90;99.90
16283;DHT22;8249;48.708;9.030;2022-11-30T04:06:37;5.90;99.90
16283;DHT22;8249;48.708;9.030;2022-11-30T04:09:05;5.90;99.90
16283;DHT22;8249;48.708;9.030;2022-11-30T04:11:32;5.90;99.90
16283;DHT22;8249;48.708;9.030;2022-11-30T04:14:01;5.90;99.90
16283;DHT22;8249;48.708;9.030;2022-11-30T04:16:28;6.00;99.90
16283;DHT22;8249;48.708;9.030;2022-11-30T04:18:55;6.00;99.90
16283;DHT22;8249;48.708;9.030;2022-11-30T04:21:22;6.00;99.90
16283;DHT22;8249;48.708;9.030;2022-11-30T04:23:49;5.90;99.90
16283;DHT22;8249;48.708;9.030;2022-11-30T04:26:16;5.90;99.90
16283;DHT22;8249;48.708;9.030;2022-11-30T04:28:43;5.90;99.90
16283;DHT22;8249;48.708;9.030;2022-11-30T04:31:11;5.90;99.90
16283;DHT22;8249;48.708;9.030;2022-11-30T04:33:39;5.90;99.90
16283;DHT22;8249;48.708;9.030;2022-11-30T04:36:12;5.90;99.90
16283;DHT22;8249;48.708;9.030;2022-11-30T04:38:41;5.90;99.90
16283;DHT22;8249;48.708;9.030;2022-11-30T04:41:08;5.90;99.90
16283;DHT22;8249;48.708;9.030;2022-11-30T04:43:35;5.90;99.90
16283;DHT22;8249;48.708;9.030;2022-11-30T04:46:03;5.90;99.90
16283;DHT22;8249;48.708;9.030;2022-11-30T04:48:31;5.90;99.90
16283;DHT22;8249;48.708;9.030;2022-11-30T04:51:00;6.00;99.90
16283;DHT22;8249;48.708;9.030;2022-11-30T04:53:27;5.90;99.90
16283;DHT22;8249;48.708;9.030;2022-11-30T04:55:54;5.90;99.90
16283;DHT22;8249;48.708;9.030;2022-11-30T04:58:21;5.90;99.90
16283;DHT22;8249;48.708;9.030;2022-11-30T05:00:48;5.90;99.90
16283;DHT22;8249;48.708;9.030;2022-11-30T05:03:15;5.90;99.90
16283;DHT22;8249;48.708;9.030;2022-11-30T05:05:43;5.90;99.90
16283;DHT22;8249;48.708;9.030;2022-11-30T05:08:10;5.90;99.90
16283;DHT22;8249;48.708;9.030;2022-11-30T05:10:37;5.90;99.90
16283;DHT22;8249;48.708;9.030;2022-11-30T05:13:04;5.90;99.90
16283;DHT22;8249;48.708;9.030;2022-11-30T05:15:31;5.90;99.90
16283;DHT22;8249;48.708;9.030;2022-11-30T05:17:58;5.80;99.90
16283;DHT22;8249;48.708;9.030;2022-11-30T05:20:25;5.80;99.90
16283;DHT22;8249;48.708;9.030;2022-11-30T05:22:54;5.90;99.90
16283;DHT22;8249;48.708;9.030;2022-11-30T05:25:21;5.90;99.90
16283;DHT22;8249;48.708;9.030;2022-11-30T05:27:48;5.80;99.90
16283;DHT22;8249;48.708;9.030;2022-11-30T05:30:15;5.90;99.90
16283;DHT22;8249;48.708;9.030;2022-11-30T05:32:42;5.90;99.90
16283;DHT22;8249;48.708;9.030;2022-11-30T05:35:09;5.80;99.90
16283;DHT22;8249;48.708;9.030;2022-11-30T05:37:36;5.90;99.90
16283;DHT22;8249;48.708;9.030;2022-11-30T05:40:06;5.90;99.90
16283;DHT22;8249;48.708;9.030;2022-11-30T05:42:33;5.90;99.90
16283;DHT22;8249;48.708;9.030;2022-11-30T05:45:00;5.90;99.90
16283;DHT22;8249;48.708;9.030;2022-11-30T05:47:27;5.90;99.90
16283;DHT22;8249;48.708;9.030;2022-11-30T05:49:54;5.80;99.90
16283;DHT22;8249;48.708;9.030;2022-11-30T05:52:21;5.90;99.90
16283;DHT22;8249;48.708;9.030;2022-11-30T05:54:48;5.90;99.90
16283;DHT22;8249;48.708;9.030;2022-11-30T05:57:16;6.00;99.90
16283;DHT22;8249;48.708;9.030;2022-11-30T05:59:43;6.10;99.90
16283;DHT22;8249;48.708;9.030;2022-11-30T06:02:10;6.10;99.90
16283;DHT22;8249;48.708;9.030;2022-11-30T06:04:37;6.20;99.90
16283;DHT22;8249;48.708;9.030;2022-11-30T06:07:04;6.20;99.90
16283;DHT22;8249;48.708;9.030;2022-11-30T06:09:36;6.20;99.90
16283;DHT22;8249;48.708;9.030;2022-11-30T06:12:03;6.20;99.90
16283;DHT22;8249;48.708;9.030;2022-11-30T06:14:32;6.20;99.90
16283;DHT22;8249;48.708;9.030;2022-11-30T06:16:59;6.30;99.90
16283;DHT22;8249;48.708;9.030;2022-11-30T06:19:25;6.20;99.90
16283;DHT22;8249;48.708;9.030;2022-11-30T06:21:52;6.20;99.90
16283;DHT22;8249;48.708;9.030;2022-11-30T06:24:19;6.20;99.90
16283;DHT22;8249;48.708;9.030;2022-11-30T06:26:46;6.10;99.90
16283;DHT22;8249;48.708;9.030;2022-11-30T06:29:13;6.10;99.90
16283;DHT22;8249;48.708;9.030;2022-11-30T06:31:42;6.00;99.90
16283;DHT22;8249;48.708;9.030;2022-11-30T06:34:08;6.00;99.90
16283;DHT22;8249;48.708;9.030;2022-11-30T06:36:35;6.00;99.90
16283;DHT22;8249;48.708;9.030;2022-11-30T06:39:02;6.00;99.90
16283;DHT22;8249;48.708;9.030;2022-11-30T06:41:29;5.90;99.90
16283;DHT22;8249;48.708;9.030;2022-11-30T06:43:56;5.90;99.90
16283;DHT22;8249;48.708;9.030;2022-11-30T06:46:23;5.90;99.90
16283;DHT22;8249;48.708;9.030;2022-11-30T06:48:52;5.90;99.90
16283;DHT22;8249;48.708;9.030;2022-11-30T06:51:20;5.90;99.90
16283;DHT22;8249;48.708;9.030;2022-11-30T06:53:47;5.90;99.90
16283;DHT22;8249;48.708;9.030;2022-11-30T06:56:14;5.90;99.90
16283;DHT22;8249;48.708;9.030;2022-11-30T06:58:41;5.90;99.90
16283;DHT22;8249;48.708;9.030;2022-11-30T07:01:10;5.90;99.90
16283;DHT22;8249;48.708;9.030;2022-11-30T07:03:37;5.90;99.90
16283;DHT22;8249;48.708;9.030;2022-11-30T07:06:11;5.90;99.90
16283;DHT22;8249;48.708;9.030;2022-11-30T07:08:39;5.90;99.90
16283;DHT22;8249;48.708;9.030;2022-11-30T07:11:07;5.90;99.90
16283;DHT22;8249;48.708;9.030;2022-11-30T07:13:34;5.90;99.90
16283;DHT22;8249;48.708;9.030;2022-11-30T07:16:02;5.90;99.90
16283;DHT22;8249;48.708;9.030;2022-11-30T07:18:30;6.00;99.90
16283;DHT22;8249;48.708;9.030;2022-11-30T07:20:57;6.00;99.90
16283;DHT22;8249;48.708;9.030;2022-11-30T07:23:27;6.00;99.90
16283;DHT22;8249;48.708;9.030;2022-11-30T07:26:11;6.00;99.90
16283;DHT22;8249;48.708;9.030;2022-11-30T07:28:39;6.00;99.90
16283;DHT22;8249;48.708;9.030;2022-11-30T07:31:17;6.00;99.90
16283;DHT22;8249;48.708;9.030;2022-11-30T07:33:45;6.00;99.90
16283;DHT22;8249;48.708;9.030;2022-11-30T07:36:12;6.00;99.90
16283;DHT22;8249;48.708;9.030;2022-11-30T07:38:40;6.10;99.90
16283;DHT22;8249;48.708;9.030;2022-11-30T07:41:07;6.10;99.90
16283;DHT22;8249;48.708;9.030;2022-11-30T07:43:34;6.10;99.90
16283;DHT22;8249;48.708;9.030;2022-11-30T07:46:02;6.10;99.90
16283;DHT22;8249;48.708;9.030;2022-11-30T07:48:29;6.10;99.90
16283;DHT22;8249;48.708;9.030;2022-11-30T07:51:01;6.20;99.90
16283;DHT22;8249;48.708;9.030;2022-11-30T07:53:28;6.20;99.90
16283;DHT22;8249;48.708;9.030;2022-11-30T07:56:02;6.20;99.90
16283;DHT22;8249;48.708;9.030;2022-11-30T07:58:29;6.20;99.90
16283;DHT22;8249;48.708;9.030;2022-11-30T08:01:00;6.20;99.90
16283;DHT22;8249;48.708;9.030;2022-11-30T08:03:28;6.30;99.90
16283;DHT22;8249;48.708;9.030;2022-11-30T08:05:59;6.30;99.90
16283;DHT22;8249;48.708;9.030;2022-11-30T08:08:29;6.30;99.90
16283;DHT22;8249;48.708;9.030;2022-11-30T08:10:56;6.30;99.90
16283;DHT22;8249;48.708;9.030;2022-11-30T08:13:24;6.30;99.90
16283;DHT22;8249;48.708;9.030;2022-11-30T08:15:51;6.30;99.90
16283;DHT22;8249;48.708;9.030;2022-11-30T08:18:19;6.30;99.90
16283;DHT22;8249;48.708;9.030;2022-11-30T08:20:46;6.30;99.90
16283;DHT22;8249;48.708;9.030;2022-11-30T08:23:13;6.30;99.90
16283;DHT22;8249;48.708;9.030;2022-11-30T08:25:40;6.30;99.90
16283;DHT22;8249;48.708;9.030;2022-11-30T08:28:06;6.30;99.90
16283;DHT22;8249;48.708;9.030;2022-11-30T08:30:35;6.30;99.90
16283;DHT22;8249;48.708;9.030;2022-11-30T08:33:02;6.30;99.90
16283;DHT22;8249;48.708;9.030;2022-11-30T08:35:29;6.30;99.90
16283;DHT22;8249;48.708;9.030;2022-11-30T08:37:56;6.30;99.90
16283;DHT22;8249;48.708;9.030;2022-11-30T08:40:23;6.30;99.90
16283;DHT22;8249;48.708;9.030;2022-11-30T08:42:50;6.20;99.90
16283;DHT22;8249;48.708;9.030;2022-11-30T08:45:17;6.20;99.90
16283;DHT22;8249;48.708;9.030;2022-11-30T08:47:45;6.30;99.90
16283;DHT22;8249;48.708;9.030;2022-11-30T08:50:12;6.30;99.90
16283;DHT22;8249;48.708;9.030;2022-11-30T08:52:39;6.30;99.90
16283;DHT22;8249;48.708;9.030;2022-11-30T08:55:07;6.30;99.90
16283;DHT22;8249;48.708;9.030;2022-11-30T08:57:34;6.40;99.90
16283;DHT22;8249;48.708;9.030;2022-11-30T09:00:02;6.50;99.90
16283;DHT22;8249;48.708;9.030;2022-11-30T09:02:29;6.60;99.90
16283;DHT22;8249;48.708;9.030;2022-11-30T09:04:57;6.70;99.90
16283;DHT22;8249;48.708;9.030;2022-11-30T09:07:24;6.90;99.90
16283;DHT22;8249;48.708;9.030;2022-11-30T09:09:51;6.90;99.90
16283;DHT22;8249;48.708;9.030;2022-11-30T09:12:18;7.00;99.90
16283;DHT22;8249;48.708;9.030;2022-11-30T09:14:47;7.10;99.90
16283;DHT22;8249;48.708;9.030;2022-11-30T09:17:13;7.10;99.90
16283;DHT22;8249;48.708;9.030;2022-11-30T09:19:40;7.10;99.90
16283;DHT22;8249;48.708;9.030;2022-11-30T09:22:09;7.10;99.90
16283;DHT22;8249;48.708;9.030;2022-11-30T09:24:36;7.10;99.90
16283;DHT22;8249;48.708;9.030;2022-11-30T09:27:03;7.10;99.90
16283;DHT22;8249;48.708;9.030;2022-11-30T09:29:30;7.10;99.90
16283;DHT22;8249;48.708;9.030;2022-11-30T09:31:57;7.10;99.90
16283;DHT22;8249;48.708;9.030;2022-11-30T09:34:24;7.10;99.90
16283;DHT22;8249;48.708;9.030;2022-11-30T09:36:50;7.20;99.90
16283;DHT22;8249;48.708;9.030;2022-11-30T09:39:19;7.20;99.90
16283;DHT22;8249;48.708;9.030;2022-11-30T09:42:11;7.30;99.90
16283;DHT22;8249;48.708;9.030;2022-11-30T09:44:46;7.20;99.90
16283;DHT22;8249;48.708;9.030;2022-11-30T09:47:27;7.30;99.90
16283;DHT22;8249;48.708;9.030;2022-11-30T09:49:56;7.40;99.90
16283;DHT22;8249;48.708;9.030;2022-11-30T09:52:32;7.40;99.90
16283;DHT22;8249;48.708;9.030;2022-11-30T09:55:07;7.50;99.90
16283;DHT22;8249;48.708;9.030;2022-11-30T09:57:42;7.60;99.90
16283;DHT22;8249;48.708;9.030;2022-11-30T10:00:13;7.60;99.90
16283;DHT22;8249;48.708;9.030;2022-11-30T10:02:40;7.70;99.90
16283;DHT22;8249;48.708;9.030;2022-11-30T10:05:11;7.70;99.90
16283;DHT22;8249;48.708;9.030;2022-11-30T10:10:35;7.80;99.90
16283;DHT22;8249;48.708;9.030;2022-11-30T10:13:15;7.80;99.90
16283;DHT22;8249;48.708;9.030;2022-11-30T10:15:56;7.80;99.90
16283;DHT22;8249;48.708;9.030;2022-11-30T10:18:34;7.80;99.90
16283;DHT22;8249;48.708;9.030;2022-11-30T10:21:12;7.80;99.90
16283;DHT22;8249;48.708;9.030;2022-11-30T10:23:53;7.80;99.90
16283;DHT22;8249;48.708;9.030;2022-11-30T10:26:27;7.60;99.90
16283;DHT22;8249;48.708;9.030;2022-11-30T10:29:03;7.60;99.90
16283;DHT22;8249;48.708;9.030;2022-11-30T10:31:34;7.60;99.90
16283;DHT22;8249;48.708;9.030;2022-11-30T10:34:16;7.60;99.90
16283;DHT22;8249;48.708;9.030;2022-11-30T10:36:46;7.60;99.90
16283;DHT22;8249;48.708;9.030;2022-11-30T10:39:19;7.60;99.90
16283;DHT22;8249;48.708;9.030;2022-11-30T10:41:52;7.60;99.90
16283;DHT22;8249;48.708;9.030;2022-11-30T10:44:24;7.60;99.90
16283;DHT22;8249;48.708;9.030;2022-11-30T10:46:56;7.60;99.90
16283;DHT22;8249;48.708;9.030;2022-11-30T10:49:27;7.60;99.90
16283;DHT22;8249;48.708;9.030;2022-11-30T10:51:57;7.70;99.90
16283;DHT22;8249;48.708;9.030;2022-11-30T10:54:25;7.60;99.90
16283;DHT22;8249;48.708;9.030;2022-11-30T10:56:54;7.60;99.90
16283;DHT22;8249;48.708;9.030;2022-11-30T10:59:23;7.60;99.90
16283;DHT22;8249;48.708;9.030;2022-11-30T11:01:51;7.60;99.90
16283;DHT22;8249;48.708;9.030;2022-11-30T11:04:20;7.50;99.90
16283;DHT22;8249;48.708;9.030;2022-11-30T11:06:49;7.60;99.90
16283;DHT22;8249;48.708;9.030;2022-11-30T11:09:39;7.50;99.90
16283;DHT22;8249;48.708;9.030;2022-11-30T11:12:15;7.50;99.90
16283;DHT22;8249;48.708;9.030;2022-11-30T11:14:43;7.40;99.90
16283;DHT22;8249;48.708;9.030;2022-11-30T11:17:21;7.40;99.90
16283;DHT22;8249;48.708;9.030;2022-11-30T11:19:49;7.30;99.90
16283;DHT22;8249;48.708;9.030;2022-11-30T11:22:19;7.30;99.90
16283;DHT22;8249;48.708;9.030;2022-11-30T11:24:47;7.30;99.90
16283;DHT22;8249;48.708;9.030;2022-11-30T11:27:24;7.20;99.90
16283;DHT22;8249;48.708;9.030;2022-11-30T11:30:01;7.30;99.90
16283;DHT22;8249;48.708;9.030;2022-11-30T11:32:29;7.20;99.90
16283;DHT22;8249;48.708;9.030;2022-11-30T11:34:57;7.30;99.90
16283;DHT22;8249;48.708;9.030;2022-11-30T11:37:25;7.30;99.90
16283;DHT22;8249;48.708;9.030;2022-11-30T11:40:01;7.30;99.90
16283;DHT22;8249;48.708;9.030;2022-11-30T11:42:34;7.30;99.90
16283;DHT22;8249;48.708;9.030;2022-11-30T11:45:04;7.30;99.90
16283;DHT22;8249;48.708;9.030;2022-11-30T11:47:38;7.30;99.90
16283;DHT22;8249;48.708;9.030;2022-11-30T11:50:20;7.30;99.90
16283;DHT22;8249;48.708;9.030;2022-11-30T11:52:48;7.20;99.90
16283;DHT22;8249;48.708;9.030;2022-11-30T11:55:17;7.20;99.90
16283;DHT22;8249;48.708;9.030;2022-11-30T11:57:50;7.20;99.90
16283;DHT22;8249;48.708;9.030;2022-11-30T12:00:20;7.20;99.90
16283;DHT22;8249;48.708;9.030;2022-11-30T12:02:54;7.30;99.90
16283;DHT22;8249;48.708;9.030;2022-11-30T12:05:26;7.40;99.90
16283;DHT22;8249;48.708;9.030;2022-11-30T12:08:05;7.50;99.90
16283;DHT22;8249;48.708;9.030;2022-11-30T12:10:36;7.50;99.90
16283;DHT22;8249;48.708;9.030;2022-11-30T12:13:12;7.50;99.90
16283;DHT22;8249;48.708;9.030;2022-11-30T12:15:48;7.50;99.90
16283;DHT22;8249;48.708;9.030;2022-11-30T12:18:20;7.40;99.90
16283;DHT22;8249;48.708;9.030;2022-11-30T12:20:54;7.40;99.90
16283;DHT22;8249;48.708;9.030;2022-11-30T12:23:35;7.40;99.90
16283;DHT22;8249;48.708;9.030;2022-11-30T12:26:11;7.40;99.90
16283;DHT22;8249;48.708;9.030;2022-11-30T12:28:54;7.40;99.90
16283;DHT22;8249;48.708;9.030;2022-11-30T12:31:30;7.40;99.90
16283;DHT22;8249;48.708;9.030;2022-11-30T12:34:05;7.40;99.90
16283;DHT22;8249;48.708;9.030;2022-11-30T12:36:44;7.40;99.90
16283;DHT22;8249;48.708;9.030;2022-11-30T12:39:19;7.40;99.90
16283;DHT22;8249;48.708;9.030;2022-11-30T12:41:55;7.30;99.90
16283;DHT22;8249;48.708;9.030;2022-11-30T12:44:34;7.40;99.90
16283;DHT22;8249;48.708;9.030;2022-11-30T12:47:10;7.40;99.90
16283;DHT22;8249;48.708;9.030;2022-11-30T12:49:57;7.30;99.90
16283;DHT22;8249;48.708;9.030;2022-11-30T12:52:35;7.30;99.90
16283;DHT22;8249;48.708;9.030;2022-11-30T12:55:15;7.30;99.90
16283;DHT22;8249;48.708;9.030;2022-11-30T12:57:48;7.30;99.90
16283;DHT22;8249;48.708;9.030;2022-11-30T13:00:19;7.30;99.90
16283;DHT22;8249;48.708;9.030;2022-11-30T13:03:09;7.30;99.90
16283;DHT22;8249;48.708;9.030;2022-11-30T13:05:41;7.30;99.90
16283;DHT22;8249;48.708;9.030;2022-11-30T13:08:17;7.30;99.90
16283;DHT22;8249;48.708;9.030;2022-11-30T13:10:46;7.40;99.90
16283;DHT22;8249;48.708;9.030;2022-11-30T13:13:18;7.30;99.90
16283;DHT22;8249;48.708;9.030;2022-11-30T13:15:48;7.30;99.90
16283;DHT22;8249;48.708;9.030;2022-11-30T13:18:17;7.30;99.90
16283;DHT22;8249;48.708;9.030;2022-11-30T13:20:48;7.30;99.90
16283;DHT22;8249;48.708;9.030;2022-11-30T13:23:23;7.20;99.90
16283;DHT22;8249;48.708;9.030;2022-11-30T13:25:58;7.20;99.90
16283;DHT22;8249;48.708;9.030;2022-11-30T13:28:44;7.10;99.90
16283;DHT22;8249;48.708;9.030;2022-11-30T13:31:19;7.10;99.90
16283;DHT22;8249;48.708;9.030;2022-11-30T13:33:56;7.00;99.90
16283;DHT22;8249;48.708;9.030;2022-11-30T13:36:34;7.00;99.90
16283;DHT22;8249;48.708;9.030;2022-11-30T13:39:18;7.00;99.90
16283;DHT22;8249;48.708;9.030;2022-11-30T13:41:47;6.90;99.90
16283;DHT22;8249;48.708;9.030;2022-11-30T13:44:29;7.00;99.90
16283;DHT22;8249;48.708;9.030;2022-11-30T13:46:59;6.90;99.90
16283;DHT22;8249;48.708;9.030;2022-11-30T13:49:28;6.80;99.90
16283;DHT22;8249;48.708;9.030;2022-11-30T13:51:58;6.80;99.90
16283;DHT22;8249;48.708;9.030;2022-11-30T13:54:42;6.80;99.90
16283;DHT22;8249;48.708;9.030;2022-11-30T14:00:47;6.70;99.90
16283;DHT22;8249;48.708;9.030;2022-11-30T14:03:27;6.70;99.90
16283;DHT22;8249;48.708;9.030;2022-11-30T14:05:56;6.70;99.90
16283;DHT22;8249;48.708;9.030;2022-11-30T14:08:35;6.60;99.90
16283;DHT22;8249;48.708;9.030;2022-11-30T14:11:34;6.60;99.90
16283;DHT22;8249;48.708;9.030;2022-11-30T14:14:38;6.60;99.90
16283;DHT22;8249;48.708;9.030;2022-11-30T14:17:11;6.60;99.90
16283;DHT22;8249;48.708;9.030;2022-11-30T14:19:43;6.60;99.90
16283;DHT22;8249;48.708;9.030;2022-11-30T14:22:11;6.50;99.90
16283;DHT22;8249;48.708;9.030;2022-11-30T14:24:40;6.50;99.90
16283;DHT22;8249;48.708;9.030;2022-11-30T14:27:14;6.50;99.90
16283;DHT22;8249;48.708;9.030;2022-11-30T14:29:43;6.50;99.90
16283;DHT22;8249;48.708;9.030;2022-11-30T14:32:11;6.50;99.90
16283;DHT22;8249;48.708;9.030;2022-11-30T14:34:44;6.50;99.90
16283;DHT22;8249;48.708;9.030;2022-11-30T14:37:17;6.50;99.90
16283;DHT22;8249;48.708;9.030;2022-11-30T14:39:47;6.40;99.90
16283;DHT22;8249;48.708;9.030;2022-11-30T14:42:19;6.40;99.90
16283;DHT22;8249;48.708;9.030;2022-11-30T14:44:47;6.40;99.90
16283;DHT22;8249;48.708;9.030;2022-11-30T14:47:19;6.40;99.90
16283;DHT22;8249;48.708;9.030;2022-11-30T14:49:49;6.40;99.90
16283;DHT22;8249;48.708;9.030;2022-11-30T14:52:28;6.50;99.90
16283;DHT22;8249;48.708;9.030;2022-11-30T14:55:05;6.40;99.90
16283;DHT22;8249;48.708;9.030;2022-11-30T14:57:42;6.40;99.90
16283;DHT22;8249;48.708;9.030;2022-11-30T15:00:14;6.40;99.90
16283;DHT22;8249;48.708;9.030;2022-11-30T15:02:42;6.40;99.90
16283;DHT22;8249;48.708;9.030;2022-11-30T15:05:15;6.40;99.90
16283;DHT22;8249;48.708;9.030;2022-11-30T15:07:43;6.30;99.90
16283;DHT22;8249;48.708;9.030;2022-11-30T15:10:14;6.40;99.90
16283;DHT22;8249;48.708;9.030;2022-11-30T15:12:42;6.30;99.90
16283;DHT22;8249;48.708;9.030;2022-11-30T15:15:16;6.30;99.90
16283;DHT22;8249;48.708;9.030;2022-11-30T15:17:46;6.30;99.90
16283;DHT22;8249;48.708;9.030;2022-11-30T15:20:24;6.30;99.90
16283;DHT22;8249;48.708;9.030;2022-11-30T15:22:53;6.30;99.90
16283;DHT22;8249;48.708;9.030;2022-11-30T15:25:21;6.20;99.90
16283;DHT22;8249;48.708;9.030;2022-11-30T15:27:50;6.30;99.90
16283;DHT22;8249;48.708;9.030;2022-11-30T15:30:17;6.30;99.90
16283;DHT22;8249;48.708;9.030;2022-11-30T15:32:46;6.20;99.90
16283;DHT22;8249;48.708;9.030;2022-11-30T15:35:21;6.20;99.90
16283;DHT22;8249;48.708;9.030;2022-11-30T15:37:49;6.20;99.90
16283;DHT22;8249;48.708;9.030;2022-11-30T15:40:24;6.20;99.90
16283;DHT22;8249;48.708;9.030;2022-11-30T15:42:53;6.20;99.90
16283;DHT22;8249;48.708;9.030;2022-11-30T15:45:22;6.20;99.90
16283;DHT22;8249;48.708;9.030;2022-11-30T15:47:50;6.20;99.90
16283;DHT22;8249;48.708;9.030;2022-11-30T15:50:40;6.20;99.90
16283;DHT22;8249;48.708;9.030;2022-11-30T15:53:28;6.20;99.90
16283;DHT22;8249;48.708;9.030;2022-11-30T15:55:57;6.20;99.90
16283;DHT22;8249;48.708;9.030;2022-11-30T15:58:28;6.20;99.90
16283;DHT22;8249;48.708;9.030;2022-11-30T16:01:07;6.20;99.90
16283;DHT22;8249;48.708;9.030;2022-11-30T16:03:58;6.20;99.90
16283;DHT22;8249;48.708;9.030;2022-11-30T16:06:28;6.20;99.90
16283;DHT22;8249;48.708;9.030;2022-11-30T16:08:57;6.20;99.90
16283;DHT22;8249;48.708;9.030;2022-11-30T16:11:24;6.20;99.90
16283;DHT22;8249;48.708;9.030;2022-11-30T16:13:52;6.20;99.90
16283;DHT22;8249;48.708;9.030;2022-11-30T16:16:21;6.20;99.90
16283;DHT22;8249;48.708;9.030;2022-11-30T16:18:49;6.20;99.90
16283;DHT22;8249;48.708;9.030;2022-11-30T16:21:17;6.10;99.90
16283;DHT22;8249;48.708;9.030;2022-11-30T16:23:47;6.10;99.90
16283;DHT22;8249;48.708;9.030;2022-11-30T16:26:16;6.10;99.90
16283;DHT22;8249;48.708;9.030;2022-11-30T16:28:43;6.10;99.90
16283;DHT22;8249;48.708;9.030;2022-11-30T16:31:15;6.10;99.90